sensor_id;sensor_type;location;lat;lon;timestamp;pressure;altitude;pressure_sealevel;temperature;humidity
72359;BME280;60317;48.880;-0.862;2023-08-20T00:01:48;100879.91;;;21.15;64.03
72359;BME280;60317;48.880;-0.862;2023-08-20T00:04:18;100886.16;;;21.16;63.82
72359;BME280;60317;48.880;-0.862;2023-08-20T00:06:46;100888.97;;;21.14;63.89
72359;BME280;60317;48.880;-0.862;2023-08-20T00:09:12;100884.44;;;21.15;63.77
72359;BME280;60317;48.880;-0.862;2023-08-20T00:11:39;100895.19;;;21.15;63.83
72359;BME280;60317;48.880;-0.862;2023-08-20T00:14:05;100890.94;;;21.12;63.72
72359;BME280;60317;48.880;-0.862;2023-08-20T00:16:32;100894.47;;;21.13;63.83
72359;BME280;60317;48.880;-0.862;2023-08-20T00:18:59;100900.81;;;21.12;63.91
72359;BME280;60317;48.880;-0.862;2023-08-20T00:21:27;100906.19;;;21.12;63.69
72359;BME280;60317;48.880;-0.862;2023-08-20T00:23:55;100900.13;;;21.10;63.66
72359;BME280;60317;48.880;-0.862;2023-08-20T00:26:21;100900.13;;;21.10;63.55
72359;BME280;60317;48.880;-0.862;2023-08-20T00:28:48;100899.25;;;21.09;63.48
72359;BME280;60317;48.880;-0.862;2023-08-20T00:31:15;100902.22;;;21.06;63.32
72359;BME280;60317;48.880;-0.862;2023-08-20T00:33:41;100899.53;;;21.06;63.52
72359;BME280;60317;48.880;-0.862;2023-08-20T00:36:22;100903.91;;;21.07;63.43
72359;BME280;60317;48.880;-0.862;2023-08-20T00:38:50;100900.38;;;21.07;63.43
72359;BME280;60317;48.880;-0.862;2023-08-20T00:41:17;100898.38;;;21.09;63.58
72359;BME280;60317;48.880;-0.862;2023-08-20T00:43:43;100904.75;;;21.08;63.62
72359;BME280;60317;48.880;-0.862;2023-08-20T00:46:10;100899.38;;;21.08;63.48
72359;BME280;60317;48.880;-0.862;2023-08-20T00:48:37;100899.53;;;21.06;63.25
72359;BME280;60317;48.880;-0.862;2023-08-20T00:51:04;100909.53;;;21.04;63.30
72359;BME280;60317;48.880;-0.862;2023-08-20T00:53:30;100908.44;;;21.07;63.20
72359;BME280;60317;48.880;-0.862;2023-08-20T00:55:58;100911.38;;;21.04;63.34
72359;BME280;60317;48.880;-0.862;2023-08-20T00:58:25;100913.22;;;21.03;63.27
72359;BME280;60317;48.880;-0.862;2023-08-20T01:00:51;100912.22;;;21.04;63.02
72359;BME280;60317;48.880;-0.862;2023-08-20T01:03:18;100913.31;;;21.02;63.45
72359;BME280;60317;48.880;-0.862;2023-08-20T01:05:48;100910.63;;;21.02;63.21
72359;BME280;60317;48.880;-0.862;2023-08-20T01:08:25;100907.94;;;21.02;63.06
72359;BME280;60317;48.880;-0.862;2023-08-20T01:11:01;100908.94;;;21.01;63.05
72359;BME280;60317;48.880;-0.862;2023-08-20T01:13:30;100908.06;;;21.00;62.96
72359;BME280;60317;48.880;-0.862;2023-08-20T01:15:56;100921.38;;;21.02;62.87
72359;BME280;60317;48.880;-0.862;2023-08-20T01:18:23;100908.78;;;21.02;62.94
72359;BME280;60317;48.880;-0.862;2023-08-20T01:20:55;100912.47;;;21.01;63.13
72359;BME280;60317;48.880;-0.862;2023-08-20T01:23:40;100919.69;;;21.01;62.81
72359;BME280;60317;48.880;-0.862;2023-08-20T01:26:21;100923.34;;;21.00;62.66
72359;BME280;60317;48.880;-0.862;2023-08-20T01:28:54;100923.34;;;21.00;62.75
72359;BME280;60317;48.880;-0.862;2023-08-20T01:31:21;100923.47;;;20.98;62.55
72359;BME280;60317;48.880;-0.862;2023-08-20T01:33:49;100923.34;;;21.00;62.60
72359;BME280;60317;48.880;-0.862;2023-08-20T01:36:16;100926.28;;;20.96;62.54
72359;BME280;60317;48.880;-0.862;2023-08-20T01:38:43;100932.50;;;20.97;62.54
72359;BME280;60317;48.880;-0.862;2023-08-20T01:41:10;100930.81;;;20.96;62.51
72359;BME280;60317;48.880;-0.862;2023-08-20T01:43:37;100936.06;;;20.97;62.35
72359;BME280;60317;48.880;-0.862;2023-08-20T01:46:04;100932.66;;;20.95;62.29
72359;BME280;60317;48.880;-0.862;2023-08-20T01:48:31;100935.44;;;20.94;62.46
72359;BME280;60317;48.880;-0.862;2023-08-20T01:50:57;100939.97;;;20.93;62.29
72359;BME280;60317;48.880;-0.862;2023-08-20T01:53:24;100939.13;;;20.93;62.33
72359;BME280;60317;48.880;-0.862;2023-08-20T01:55:50;100940.97;;;20.92;62.25
72359;BME280;60317;48.880;-0.862;2023-08-20T01:58:17;100940.09;;;20.92;62.33
72359;BME280;60317;48.880;-0.862;2023-08-20T02:00:45;100939.22;;;20.91;62.06
72359;BME280;60317;48.880;-0.862;2023-08-20T02:03:13;100947.28;;;20.91;62.20
72359;BME280;60317;48.880;-0.862;2023-08-20T02:05:39;100937.44;;;20.92;62.08
72359;BME280;60317;48.880;-0.862;2023-08-20T02:08:06;100942.91;;;20.90;62.08
72359;BME280;60317;48.880;-0.862;2023-08-20T02:10:32;100949.25;;;20.89;61.92
72359;BME280;60317;48.880;-0.862;2023-08-20T02:12:59;100948.41;;;20.89;62.21
72359;BME280;60317;48.880;-0.862;2023-08-20T02:15:25;100952.91;;;20.88;62.07
72359;BME280;60317;48.880;-0.862;2023-08-20T02:17:52;100952.91;;;20.88;62.04
72359;BME280;60317;48.880;-0.862;2023-08-20T02:20:20;100952.06;;;20.88;61.95
72359;BME280;60317;48.880;-0.862;2023-08-20T02:22:46;100953.03;;;20.87;61.90
72359;BME280;60317;48.880;-0.862;2023-08-20T02:25:13;100945.84;;;20.87;61.61
72359;BME280;60317;48.880;-0.862;2023-08-20T02:27:39;100949.50;;;20.86;61.81
72359;BME280;60317;48.880;-0.862;2023-08-20T02:30:07;100945.97;;;20.86;61.77
72359;BME280;60317;48.880;-0.862;2023-08-20T02:32:33;100949.63;;;20.85;61.77
72359;BME280;60317;48.880;-0.862;2023-08-20T02:35:00;100948.78;;;20.84;61.66
72359;BME280;60317;48.880;-0.862;2023-08-20T02:37:28;100955.00;;;20.85;61.77
72359;BME280;60317;48.880;-0.862;2023-08-20T02:39:55;100952.44;;;20.83;61.74
72359;BME280;60317;48.880;-0.862;2023-08-20T02:42:21;100950.75;;;20.82;61.63
72359;BME280;60317;48.880;-0.862;2023-08-20T02:44:48;100952.44;;;20.83;61.52
72359;BME280;60317;48.880;-0.862;2023-08-20T02:47:14;100952.56;;;20.82;61.45
72359;BME280;60317;48.880;-0.862;2023-08-20T02:49:41;100950.84;;;20.81;61.43
72359;BME280;60317;48.880;-0.862;2023-08-20T02:52:07;100948.06;;;20.82;61.64
72359;BME280;60317;48.880;-0.862;2023-08-20T02:54:35;100957.06;;;20.81;61.37
72359;BME280;60317;48.880;-0.862;2023-08-20T02:57:02;100958.91;;;20.81;61.33
72359;BME280;60317;48.880;-0.862;2023-08-20T02:59:28;100961.72;;;20.79;61.42
72359;BME280;60317;48.880;-0.862;2023-08-20T03:01:55;100955.38;;;20.80;61.39
72359;BME280;60317;48.880;-0.862;2023-08-20T03:04:22;100956.34;;;20.79;61.22
72359;BME280;60317;48.880;-0.862;2023-08-20T03:06:48;100957.34;;;20.78;61.20
72359;BME280;60317;48.880;-0.862;2023-08-20T03:09:15;100965.41;;;20.78;61.23
72359;BME280;60317;48.880;-0.862;2023-08-20T03:11:43;100965.41;;;20.78;61.10
72359;BME280;60317;48.880;-0.862;2023-08-20T03:14:09;100976.16;;;20.78;61.29
72359;BME280;60317;48.880;-0.862;2023-08-20T03:16:36;100969.03;;;20.77;60.96
72359;BME280;60317;48.880;-0.862;2023-08-20T03:19:02;100970.03;;;20.76;61.32
72359;BME280;60317;48.880;-0.862;2023-08-20T03:21:29;100975.41;;;20.76;61.18
72359;BME280;60317;48.880;-0.862;2023-08-20T03:23:55;100973.72;;;20.75;61.05
72359;BME280;60317;48.880;-0.862;2023-08-20T03:26:22;100968.34;;;20.75;60.97
72359;BME280;60317;48.880;-0.862;2023-08-20T03:28:50;100972.84;;;20.75;60.72
72359;BME280;60317;48.880;-0.862;2023-08-20T03:31:16;100976.50;;;20.73;60.75
72359;BME280;60317;48.880;-0.862;2023-08-20T03:33:43;100963.06;;;20.73;60.67
72359;BME280;60317;48.880;-0.862;2023-08-20T03:36:10;100969.28;;;20.74;60.46
72359;BME280;60317;48.880;-0.862;2023-08-20T03:38:36;100963.91;;;20.74;60.69
72359;BME280;60317;48.880;-0.862;2023-08-20T03:41:03;100956.84;;;20.73;60.97
72359;BME280;60317;48.880;-0.862;2023-08-20T03:43:29;100965.03;;;20.71;60.66
72359;BME280;60317;48.880;-0.862;2023-08-20T03:45:57;100952.47;;;20.72;60.52
72359;BME280;60317;48.880;-0.862;2023-08-20T03:48:24;100952.47;;;20.72;60.61
72359;BME280;60317;48.880;-0.862;2023-08-20T03:50:50;100958.81;;;20.71;60.52
72359;BME280;60317;48.880;-0.862;2023-08-20T03:53:17;100961.50;;;20.71;60.51
72359;BME280;60317;48.880;-0.862;2023-08-20T03:55:47;100956.25;;;20.69;60.40
72359;BME280;60317;48.880;-0.862;2023-08-20T03:58:14;100965.16;;;20.70;60.54
72359;BME280;60317;48.880;-0.862;2023-08-20T04:00:40;100963.44;;;20.69;60.25
72359;BME280;60317;48.880;-0.862;2023-08-20T04:03:08;100968.81;;;20.69;60.26
72359;BME280;60317;48.880;-0.862;2023-08-20T04:05:36;100967.13;;;20.68;60.29
72359;BME280;60317;48.880;-0.862;2023-08-20T04:08:02;100967.97;;;20.68;60.21
72359;BME280;60317;48.880;-0.862;2023-08-20T04:10:29;100970.75;;;20.67;60.01
72359;BME280;60317;48.880;-0.862;2023-08-20T04:12:56;100976.13;;;20.67;60.06
72359;BME280;60317;48.880;-0.862;2023-08-20T04:15:22;100977.88;;;20.68;60.27
72359;BME280;60317;48.880;-0.862;2023-08-20T04:17:48;100972.59;;;20.66;60.14
72359;BME280;60317;48.880;-0.862;2023-08-20T04:20:17;100979.94;;;20.64;60.06
72359;BME280;60317;48.880;-0.862;2023-08-20T04:22:43;100974.44;;;20.66;60.18
72359;BME280;60317;48.880;-0.862;2023-08-20T04:25:10;100983.34;;;20.66;59.86
72359;BME280;60317;48.880;-0.862;2023-08-20T04:27:36;100983.47;;;20.65;59.85
72359;BME280;60317;48.880;-0.862;2023-08-20T04:30:03;100988.84;;;20.65;60.02
72359;BME280;60317;48.880;-0.862;2023-08-20T04:32:30;100981.75;;;20.64;59.86
72359;BME280;60317;48.880;-0.862;2023-08-20T04:34:57;100982.72;;;20.63;59.75
72359;BME280;60317;48.880;-0.862;2023-08-20T04:37:24;100986.25;;;20.63;59.62
72359;BME280;60317;48.880;-0.862;2023-08-20T04:39:51;100984.44;;;20.64;59.86
72359;BME280;60317;48.880;-0.862;2023-08-20T04:42:18;100986.41;;;20.62;59.72
72359;BME280;60317;48.880;-0.862;2023-08-20T04:44:44;100989.94;;;20.62;59.65
72359;BME280;60317;48.880;-0.862;2023-08-20T04:47:11;100990.91;;;20.61;59.86
72359;BME280;60317;48.880;-0.862;2023-08-20T04:49:37;100985.56;;;20.61;59.52
72359;BME280;60317;48.880;-0.862;2023-08-20T04:52:04;100980.28;;;20.60;59.53
72359;BME280;60317;48.880;-0.862;2023-08-20T04:54:32;100987.38;;;20.61;59.61
72359;BME280;60317;48.880;-0.862;2023-08-20T04:56:58;100987.38;;;20.61;59.64
72359;BME280;60317;48.880;-0.862;2023-08-20T04:59:25;100986.50;;;20.60;59.77
72359;BME280;60317;48.880;-0.862;2023-08-20T05:01:51;100988.34;;;20.60;59.73
72359;BME280;60317;48.880;-0.862;2023-08-20T05:04:18;100990.19;;;20.59;59.33
72359;BME280;60317;48.880;-0.862;2023-08-20T05:06:44;100992.00;;;20.59;59.65
72359;BME280;60317;48.880;-0.862;2023-08-20T05:09:11;100989.47;;;20.57;59.52
72359;BME280;60317;48.880;-0.862;2023-08-20T05:11:39;100996.53;;;20.58;59.55
72359;BME280;60317;48.880;-0.862;2023-08-20T05:14:05;100993.00;;;20.58;59.42
72359;BME280;60317;48.880;-0.862;2023-08-20T05:16:32;101000.19;;;20.57;59.77
72359;BME280;60317;48.880;-0.862;2023-08-20T05:18:58;100993.94;;;20.57;59.48
72359;BME280;60317;48.880;-0.862;2023-08-20T05:21:25;101002.00;;;20.57;59.57
72359;BME280;60317;48.880;-0.862;2023-08-20T05:23:52;101010.94;;;20.57;59.49
72359;BME280;60317;48.880;-0.862;2023-08-20T05:26:19;101007.38;;;20.57;59.43
72359;BME280;60317;48.880;-0.862;2023-08-20T05:28:46;101004.69;;;20.57;59.55
72359;BME280;60317;48.880;-0.862;2023-08-20T05:31:13;101011.91;;;20.56;59.33
72359;BME280;60317;48.880;-0.862;2023-08-20T05:33:39;101027.16;;;20.56;59.53
72359;BME280;60317;48.880;-0.862;2023-08-20T05:36:06;101033.38;;;20.56;59.54
72359;BME280;60317;48.880;-0.862;2023-08-20T05:38:32;101028.88;;;20.57;59.44
72359;BME280;60317;48.880;-0.862;2023-08-20T05:40:59;101039.75;;;20.55;59.58
72359;BME280;60317;48.880;-0.862;2023-08-20T05:43:25;101037.91;;;20.56;59.30
72359;BME280;60317;48.880;-0.862;2023-08-20T05:45:53;101040.72;;;20.54;59.49
72359;BME280;60317;48.880;-0.862;2023-08-20T05:48:20;101046.94;;;20.55;59.44
72359;BME280;60317;48.880;-0.862;2023-08-20T05:50:46;101041.56;;;20.55;59.60
72359;BME280;60317;48.880;-0.862;2023-08-20T05:53:13;101041.56;;;20.55;59.46
72359;BME280;60317;48.880;-0.862;2023-08-20T05:55:40;101038.88;;;20.55;59.44
72359;BME280;60317;48.880;-0.862;2023-08-20T05:58:06;101031.81;;;20.54;59.37
72359;BME280;60317;48.880;-0.862;2023-08-20T06:00:33;101032.66;;;20.54;59.46
72359;BME280;60317;48.880;-0.862;2023-08-20T06:03:01;101034.50;;;20.54;59.83
72359;BME280;60317;48.880;-0.862;2023-08-20T06:05:27;101032.78;;;20.53;59.61
72359;BME280;60317;48.880;-0.862;2023-08-20T06:07:54;101032.78;;;20.53;59.73
72359;BME280;60317;48.880;-0.862;2023-08-20T06:10:20;101037.19;;;20.54;59.77
72359;BME280;60317;48.880;-0.862;2023-08-20T06:12:47;101043.50;;;20.53;59.83
72359;BME280;60317;48.880;-0.862;2023-08-20T06:15:13;101037.28;;;20.52;59.78
72359;BME280;60317;48.880;-0.862;2023-08-20T06:17:40;101040.81;;;20.53;59.83
72359;BME280;60317;48.880;-0.862;2023-08-20T06:20:09;101042.56;;;20.54;59.87
72359;BME280;60317;48.880;-0.862;2023-08-20T06:22:35;101047.03;;;20.53;59.93
72359;BME280;60317;48.880;-0.862;2023-08-20T06:25:02;101039.97;;;20.52;59.95
72359;BME280;60317;48.880;-0.862;2023-08-20T06:27:30;101036.44;;;20.52;60.02
72359;BME280;60317;48.880;-0.862;2023-08-20T06:29:57;101040.97;;;20.51;60.11
72359;BME280;60317;48.880;-0.862;2023-08-20T06:32:23;101043.50;;;20.53;60.07
72359;BME280;60317;48.880;-0.862;2023-08-20T06:34:50;101044.34;;;20.53;60.05
72359;BME280;60317;48.880;-0.862;2023-08-20T06:37:18;101045.34;;;20.52;60.22
72359;BME280;60317;48.880;-0.862;2023-08-20T06:39:44;101046.19;;;20.53;60.29
72359;BME280;60317;48.880;-0.862;2023-08-20T06:42:11;101045.25;;;20.54;60.31
72359;BME280;60317;48.880;-0.862;2023-08-20T06:44:37;101037.28;;;20.52;60.28
72359;BME280;60317;48.880;-0.862;2023-08-20T06:47:04;101039.00;;;20.53;60.25
72359;BME280;60317;48.880;-0.862;2023-08-20T06:49:30;101043.50;;;20.53;60.31
72359;BME280;60317;48.880;-0.862;2023-08-20T06:51:57;101042.66;;;20.52;60.36
72359;BME280;60317;48.880;-0.862;2023-08-20T06:54:25;101046.19;;;20.53;60.42
72359;BME280;60317;48.880;-0.862;2023-08-20T06:56:51;101047.19;;;20.52;60.53
72359;BME280;60317;48.880;-0.862;2023-08-20T06:59:18;101041.81;;;20.52;60.55
72359;BME280;60317;48.880;-0.862;2023-08-20T07:01:44;101044.50;;;20.52;60.69
72359;BME280;60317;48.880;-0.862;2023-08-20T07:04:11;101052.56;;;20.52;60.71
72359;BME280;60317;48.880;-0.862;2023-08-20T07:06:38;101052.56;;;20.52;60.73
72359;BME280;60317;48.880;-0.862;2023-08-20T07:09:05;101048.88;;;20.53;60.92
72359;BME280;60317;48.880;-0.862;2023-08-20T07:11:33;101053.41;;;20.52;61.00
72359;BME280;60317;48.880;-0.862;2023-08-20T07:13:59;101061.34;;;20.54;61.26
72359;BME280;60317;48.880;-0.862;2023-08-20T07:16:26;101072.09;;;20.54;61.02
72359;BME280;60317;48.880;-0.862;2023-08-20T07:18:53;101058.66;;;20.54;61.04
72359;BME280;60317;48.880;-0.862;2023-08-20T07:21:19;101073.91;;;20.53;61.01
72359;BME280;60317;48.880;-0.862;2023-08-20T07:23:46;101078.31;;;20.54;61.14
72359;BME280;60317;48.880;-0.862;2023-08-20T07:26:12;101074.78;;;20.54;61.34
72359;BME280;60317;48.880;-0.862;2023-08-20T07:28:40;101072.81;;;20.56;61.28
72359;BME280;60317;48.880;-0.862;2023-08-20T07:31:07;101075.63;;;20.54;61.46
72359;BME280;60317;48.880;-0.862;2023-08-20T07:33:33;101088.94;;;20.56;61.54
72359;BME280;60317;48.880;-0.862;2023-08-20T07:36:00;101087.09;;;20.56;61.66
72359;BME280;60317;48.880;-0.862;2023-08-20T07:38:26;101081.63;;;20.58;61.71
72359;BME280;60317;48.880;-0.862;2023-08-20T07:40:53;101087.09;;;20.56;61.80
72359;BME280;60317;48.880;-0.862;2023-08-20T07:43:19;101085.25;;;20.57;61.98
72359;BME280;60317;48.880;-0.862;2023-08-20T07:45:47;101096.00;;;20.57;62.17
72359;BME280;60317;48.880;-0.862;2023-08-20T07:48:14;101088.94;;;20.56;62.14
72359;BME280;60317;48.880;-0.862;2023-08-20T07:50:40;101087.94;;;20.57;62.23
72359;BME280;60317;48.880;-0.862;2023-08-20T07:53:07;101093.31;;;20.57;62.54
72359;BME280;60317;48.880;-0.862;2023-08-20T07:55:33;101087.00;;;20.58;62.46
72359;BME280;60317;48.880;-0.862;2023-08-20T07:58:00;101083.31;;;20.59;62.54
72359;BME280;60317;48.880;-0.862;2023-08-20T08:00:27;101092.22;;;20.59;62.62
72359;BME280;60317;48.880;-0.862;2023-08-20T08:02:55;101085.03;;;20.60;62.44
72359;BME280;60317;48.880;-0.862;2023-08-20T08:05:21;101084.91;;;20.61;62.77
72359;BME280;60317;48.880;-0.862;2023-08-20T08:07:48;101087.59;;;20.61;62.67
72359;BME280;60317;48.880;-0.862;2023-08-20T08:10:14;101084.06;;;20.61;62.80
72359;BME280;60317;48.880;-0.862;2023-08-20T08:12:41;101085.78;;;20.62;62.71
72359;BME280;60317;48.880;-0.862;2023-08-20T08:15:07;101084.78;;;20.63;62.89
72359;BME280;60317;48.880;-0.862;2023-08-20T08:17:34;101082.09;;;20.63;62.93
72359;BME280;60317;48.880;-0.862;2023-08-20T08:20:03;101083.81;;;20.64;63.02
72359;BME280;60317;48.880;-0.862;2023-08-20T08:22:29;101090.06;;;20.64;63.12
72359;BME280;60317;48.880;-0.862;2023-08-20T08:24:56;101093.59;;;20.65;62.91
72359;BME280;60317;48.880;-0.862;2023-08-20T08:27:23;101089.06;;;20.65;63.22
72359;BME280;60317;48.880;-0.862;2023-08-20T08:29:50;101087.25;;;20.66;63.13
72359;BME280;60317;48.880;-0.862;2023-08-20T08:32:17;101089.94;;;20.66;63.03
72359;BME280;60317;48.880;-0.862;2023-08-20T08:34:43;101099.69;;;20.67;63.14
72359;BME280;60317;48.880;-0.862;2023-08-20T08:37:11;101093.47;;;20.66;63.01
72359;BME280;60317;48.880;-0.862;2023-08-20T08:39:37;101095.19;;;20.67;63.08
72359;BME280;60317;48.880;-0.862;2023-08-20T08:42:04;101089.69;;;20.69;63.05
72359;BME280;60317;48.880;-0.862;2023-08-20T08:44:31;101087.00;;;20.69;63.55
72359;BME280;60317;48.880;-0.862;2023-08-20T08:46:58;101089.69;;;20.69;63.32
72359;BME280;60317;48.880;-0.862;2023-08-20T08:49:25;101087.84;;;20.69;63.33
72359;BME280;60317;48.880;-0.862;2023-08-20T08:51:53;101088.69;;;20.70;63.69
72359;BME280;60317;48.880;-0.862;2023-08-20T08:54:21;101090.53;;;20.69;63.66
72359;BME280;60317;48.880;-0.862;2023-08-20T08:56:48;101082.47;;;20.69;63.81
72359;BME280;60317;48.880;-0.862;2023-08-20T08:59:15;101087.84;;;20.69;64.00
72359;BME280;60317;48.880;-0.862;2023-08-20T09:01:41;101085.16;;;20.69;63.79
72359;BME280;60317;48.880;-0.862;2023-08-20T09:04:08;101088.69;;;20.70;63.80
72359;BME280;60317;48.880;-0.862;2023-08-20T09:06:45;101092.25;;;20.70;63.98
72359;BME280;60317;48.880;-0.862;2023-08-20T09:09:11;101086.78;;;20.72;63.88
72359;BME280;60317;48.880;-0.862;2023-08-20T09:11:39;101092.13;;;20.72;64.22
72359;BME280;60317;48.880;-0.862;2023-08-20T09:14:06;101093.00;;;20.72;64.27
72359;BME280;60317;48.880;-0.862;2023-08-20T09:16:33;101093.84;;;20.73;63.97
72359;BME280;60317;48.880;-0.862;2023-08-20T09:19:00;101099.13;;;20.75;63.91
72359;BME280;60317;48.880;-0.862;2023-08-20T09:21:27;101100.91;;;20.74;64.13
72359;BME280;60317;48.880;-0.862;2023-08-20T09:23:54;101095.53;;;20.74;64.27
72359;BME280;60317;48.880;-0.862;2023-08-20T09:26:20;101095.53;;;20.74;64.18
72359;BME280;60317;48.880;-0.862;2023-08-20T09:28:49;101098.13;;;20.76;64.22
72359;BME280;60317;48.880;-0.862;2023-08-20T09:31:15;101096.16;;;20.78;63.75
72359;BME280;60317;48.880;-0.862;2023-08-20T09:33:50;101103.38;;;20.77;63.87
72359;BME280;60317;48.880;-0.862;2023-08-20T09:36:16;101100.56;;;20.79;63.96
72359;BME280;60317;48.880;-0.862;2023-08-20T09:38:43;101101.53;;;20.78;64.08
72359;BME280;60317;48.880;-0.862;2023-08-20T09:41:12;101099.72;;;20.78;64.28
72359;BME280;60317;48.880;-0.862;2023-08-20T09:43:39;101097.88;;;20.79;64.15
72359;BME280;60317;48.880;-0.862;2023-08-20T09:46:10;101093.38;;;20.79;63.74
72359;BME280;60317;48.880;-0.862;2023-08-20T09:48:38;101091.41;;;20.81;63.51
72359;BME280;60317;48.880;-0.862;2023-08-20T09:51:10;101097.66;;;20.82;63.41
72359;BME280;60317;48.880;-0.862;2023-08-20T09:53:39;101095.81;;;20.82;63.49
72359;BME280;60317;48.880;-0.862;2023-08-20T09:56:15;101086.78;;;20.83;63.34
72359;BME280;60317;48.880;-0.862;2023-08-20T09:58:46;101092.16;;;20.83;63.20
72359;BME280;60317;48.880;-0.862;2023-08-20T10:01:16;101086.63;;;20.85;63.14
72359;BME280;60317;48.880;-0.862;2023-08-20T10:03:43;101079.47;;;20.85;63.11
72359;BME280;60317;48.880;-0.862;2023-08-20T10:06:11;101078.47;;;20.86;62.79
72359;BME280;60317;48.880;-0.862;2023-08-20T10:08:37;101083.84;;;20.86;62.91
72359;BME280;60317;48.880;-0.862;2023-08-20T10:11:04;101078.47;;;20.86;62.87
72359;BME280;60317;48.880;-0.862;2023-08-20T10:13:31;101087.25;;;20.88;63.06
72359;BME280;60317;48.880;-0.862;2023-08-20T10:15:57;101077.38;;;20.89;63.05
72359;BME280;60317;48.880;-0.862;2023-08-20T10:18:26;101075.53;;;20.89;63.16
72359;BME280;60317;48.880;-0.862;2023-08-20T10:20:53;101082.63;;;20.90;63.20
72359;BME280;60317;48.880;-0.862;2023-08-20T10:23:20;101087.00;;;20.91;63.07
72359;BME280;60317;48.880;-0.862;2023-08-20T10:25:47;101096.81;;;20.92;63.00
72359;BME280;60317;48.880;-0.862;2023-08-20T10:28:20;101084.31;;;20.91;62.78
72359;BME280;60317;48.880;-0.862;2023-08-20T10:31:04;101088.75;;;20.92;63.09
72359;BME280;60317;48.880;-0.862;2023-08-20T10:33:33;101093.13;;;20.93;63.00
72359;BME280;60317;48.880;-0.862;2023-08-20T10:36:08;101095.81;;;20.93;62.94
72359;BME280;60317;48.880;-0.862;2023-08-20T10:38:36;101086.78;;;20.94;62.96
72359;BME280;60317;48.880;-0.862;2023-08-20T10:41:05;101089.47;;;20.94;62.85
72359;BME280;60317;48.880;-0.862;2023-08-20T10:43:34;101094.84;;;20.94;62.74
72359;BME280;60317;48.880;-0.862;2023-08-20T10:46:14;101104.63;;;20.95;62.60
72359;BME280;60317;48.880;-0.862;2023-08-20T10:48:43;101108.16;;;20.96;62.64
72359;BME280;60317;48.880;-0.862;2023-08-20T10:51:13;101103.66;;;20.96;62.70
72359;BME280;60317;48.880;-0.862;2023-08-20T10:53:41;101099.97;;;20.97;62.61
72359;BME280;60317;48.880;-0.862;2023-08-20T10:56:10;101103.66;;;20.96;62.55
72359;BME280;60317;48.880;-0.862;2023-08-20T10:58:38;101107.31;;;20.95;62.43
72359;BME280;60317;48.880;-0.862;2023-08-20T11:01:14;101099.13;;;20.97;62.57
72359;BME280;60317;48.880;-0.862;2023-08-20T11:03:44;101091.91;;;20.97;62.48
72359;BME280;60317;48.880;-0.862;2023-08-20T11:06:11;101098.97;;;20.98;62.57
72359;BME280;60317;48.880;-0.862;2023-08-20T11:08:38;101093.59;;;20.98;62.46
72359;BME280;60317;48.880;-0.862;2023-08-20T11:11:05;101097.28;;;20.97;62.50
72359;BME280;60317;48.880;-0.862;2023-08-20T11:13:33;101099.88;;;20.99;62.68
72359;BME280;60317;48.880;-0.862;2023-08-20T11:16:02;101100.72;;;21.00;62.67
72359;BME280;60317;48.880;-0.862;2023-08-20T11:18:30;101099.72;;;21.01;62.58
72359;BME280;60317;48.880;-0.862;2023-08-20T11:20:58;101099.72;;;21.01;62.60
72359;BME280;60317;48.880;-0.862;2023-08-20T11:23:25;101089.72;;;21.03;62.61
72359;BME280;60317;48.880;-0.862;2023-08-20T11:25:51;101091.44;;;21.04;62.64
72359;BME280;60317;48.880;-0.862;2023-08-20T11:28:18;101090.56;;;21.03;62.80
72359;BME280;60317;48.880;-0.862;2023-08-20T11:30:46;101090.56;;;21.03;62.83
72359;BME280;60317;48.880;-0.862;2023-08-20T11:33:12;101097.50;;;21.06;62.72
72359;BME280;60317;48.880;-0.862;2023-08-20T11:35:41;101096.56;;;21.07;62.69
72359;BME280;60317;48.880;-0.862;2023-08-20T11:38:09;101101.94;;;21.07;62.60
72359;BME280;60317;48.880;-0.862;2023-08-20T11:40:36;101096.44;;;21.08;62.55
72359;BME280;60317;48.880;-0.862;2023-08-20T11:43:02;101099.13;;;21.08;62.56
72359;BME280;60317;48.880;-0.862;2023-08-20T11:45:29;101095.44;;;21.09;62.53
72359;BME280;60317;48.880;-0.862;2023-08-20T11:47:56;101100.72;;;21.11;62.40
72359;BME280;60317;48.880;-0.862;2023-08-20T11:50:22;101086.41;;;21.10;62.53
72359;BME280;60317;48.880;-0.862;2023-08-20T11:52:51;101096.19;;;21.11;62.64
72359;BME280;60317;48.880;-0.862;2023-08-20T11:55:23;101101.56;;;21.11;62.51
72359;BME280;60317;48.880;-0.862;2023-08-20T11:57:51;101098.03;;;21.11;62.57
72359;BME280;60317;48.880;-0.862;2023-08-20T12:00:24;101092.66;;;21.11;62.39
72359;BME280;60317;48.880;-0.862;2023-08-20T12:02:52;101096.19;;;21.11;62.42
72359;BME280;60317;48.880;-0.862;2023-08-20T12:05:19;101090.81;;;21.11;62.26
72359;BME280;60317;48.880;-0.862;2023-08-20T12:07:55;101095.19;;;21.12;62.22
72359;BME280;60317;48.880;-0.862;2023-08-20T12:10:23;101088.97;;;21.12;62.00
72359;BME280;60317;48.880;-0.862;2023-08-20T12:12:50;101092.41;;;21.14;62.00
72359;BME280;60317;48.880;-0.862;2023-08-20T12:15:17;101084.44;;;21.12;61.79
72359;BME280;60317;48.880;-0.862;2023-08-20T12:17:43;101089.72;;;21.14;61.81
72359;BME280;60317;48.880;-0.862;2023-08-20T12:20:10;101093.25;;;21.14;61.69
72359;BME280;60317;48.880;-0.862;2023-08-20T12:22:37;101099.34;;;21.16;61.64
72359;BME280;60317;48.880;-0.862;2023-08-20T12:25:04;101089.59;;;21.15;61.21
72359;BME280;60317;48.880;-0.862;2023-08-20T12:27:33;101097.66;;;21.15;61.53
72359;BME280;60317;48.880;-0.862;2023-08-20T12:30:00;101092.28;;;21.15;61.21
72359;BME280;60317;48.880;-0.862;2023-08-20T12:32:27;101100.22;;;21.17;61.23
72359;BME280;60317;48.880;-0.862;2023-08-20T12:34:53;101102.91;;;21.17;61.37
72359;BME280;60317;48.880;-0.862;2023-08-20T12:37:20;101099.25;;;21.18;61.49
72359;BME280;60317;48.880;-0.862;2023-08-20T12:39:46;101098.38;;;21.17;61.26
72359;BME280;60317;48.880;-0.862;2023-08-20T12:42:13;101091.19;;;21.18;61.05